Time;durP1;ratioP1;P1;durP2;ratioP2;P2;SDS_P1;SDS_P2;PMS_P1;PMS_P2;Temp;Humidity;BMP_temperature;BMP_pressure;BME280_temperature;BME280_humidity;BME280_pressure;Samples;Min_cycle;Max_cycle;Signal;HPM_P1;HPM_P2
2023/02/20 00:00:07;;;;;;;;;;;5.50;99.90;;;;;;5052285;28;20019;-71
2023/02/20 00:02:34;;;;;;;;;;;5.50;99.90;;;;;;5051981;28;19925;-70
2023/02/20 00:05:01;;;;;;;;;;;5.50;99.90;;;;;;5051884;28;19925;-70
2023/02/20 00:07:28;;;;;;;;;;;5.50;99.90;;;;;;5045294;28;19972;-71
2023/02/20 00:09:59;;;;;;;;;;;5.50;99.90;;;;;;5043170;28;19925;-71
2023/02/20 00:12:26;;;;;;;;;;;5.50;99.90;;;;;;5053848;28;19960;-71
2023/02/20 00:14:53;;;;;;;;;;;5.40;99.90;;;;;;5052543;28;19924;-72
2023/02/20 00:17:20;;;;;;;;;;;5.40;99.90;;;;;;5051159;28;20015;-71
2023/02/20 00:19:46;;;;;;;;;;;5.40;99.90;;;;;;5050500;28;19924;-71
2023/02/20 00:22:13;;;;;;;;;;;5.40;99.90;;;;;;5051053;28;19937;-71
2023/02/20 00:24:40;;;;;;;;;;;5.40;99.90;;;;;;5051937;28;19928;-70
2023/02/20 00:27:08;;;;;;;;;;;5.40;99.90;;;;;;5046176;28;19932;-71
2023/02/20 00:29:35;;;;;;;;;;;5.40;99.90;;;;;;5063965;28;19925;-70
2023/02/20 00:32:02;;;;;;;;;;;5.50;99.90;;;;;;5050286;28;19929;-71
2023/02/20 00:34:29;;;;;;;;;;;5.50;99.90;;;;;;5050075;28;19935;-71
2023/02/20 00:36:56;;;;;;;;;;;5.60;99.90;;;;;;5043500;28;19924;-71
2023/02/20 00:39:23;;;;;;;;;;;5.60;99.90;;;;;;5045527;28;19929;-70
2023/02/20 00:41:50;;;;;;;;;;;5.60;99.90;;;;;;5041076;28;19933;-70
2023/02/20 00:44:18;;;;;;;;;;;5.60;99.90;;;;;;5052731;28;20085;-71
2023/02/20 00:46:45;;;;;;;;;;;5.60;99.90;;;;;;5043835;28;19932;-71
2023/02/20 00:49:12;;;;;;;;;;;5.50;99.90;;;;;;5048873;28;20047;-71
2023/02/20 00:51:39;;;;;;;;;;;5.50;99.90;;;;;;5049380;28;19932;-71
2023/02/20 00:54:06;;;;;;;;;;;5.50;99.90;;;;;;5050287;28;20013;-71
2023/02/20 00:56:33;;;;;;;;;;;5.50;99.90;;;;;;5048335;28;19925;-71
2023/02/20 00:58:59;;;;;;;;;;;5.50;99.90;;;;;;5047411;28;19979;-71
2023/02/20 01:01:28;;;;;;;;;;;5.60;99.90;;;;;;5043196;28;20019;-70
2023/02/20 01:03:54;;;;;;;;;;;5.60;99.90;;;;;;5040498;28;19929;-71
2023/02/20 01:06:21;;;;;;;;;;;5.60;99.90;;;;;;5050418;28;20023;-71
2023/02/20 01:08:48;;;;;;;;;;;5.70;99.90;;;;;;5050295;28;19925;-71
2023/02/20 01:11:15;;;;;;;;;;;5.70;99.90;;;;;;5048765;28;19928;-71
2023/02/20 01:13:42;;;;;;;;;;;5.80;99.90;;;;;;5049985;28;20396;-71
2023/02/20 01:16:09;;;;;;;;;;;5.80;99.90;;;;;;5050816;28;19932;-71
2023/02/20 01:18:37;;;;;;;;;;;5.80;99.90;;;;;;5051167;28;19971;-72
2023/02/20 01:21:04;;;;;;;;;;;5.80;99.90;;;;;;5040472;28;19972;-71
2023/02/20 01:23:31;;;;;;;;;;;5.80;99.90;;;;;;5046785;28;19931;-71
2023/02/20 01:25:57;;;;;;;;;;;5.90;99.90;;;;;;5048320;28;19932;-71
2023/02/20 01:28:24;;;;;;;;;;;5.90;99.90;;;;;;5052002;28;19964;-71
2023/02/20 01:30:51;;;;;;;;;;;5.90;99.90;;;;;;5045999;28;20006;-71
2023/02/20 01:33:18;;;;;;;;;;;5.90;99.90;;;;;;5051431;28;19924;-71
2023/02/20 01:35:46;;;;;;;;;;;6.00;99.90;;;;;;5046592;28;19933;-70
2023/02/20 01:38:12;;;;;;;;;;;6.00;99.90;;;;;;5051432;28;20013;-72
2023/02/20 01:40:39;;;;;;;;;;;6.00;99.90;;;;;;5048087;28;19983;-72
2023/02/20 01:43:06;;;;;;;;;;;6.00;99.90;;;;;;5043492;28;19925;-71
2023/02/20 01:45:34;;;;;;;;;;;6.00;99.90;;;;;;5040300;28;20010;-71
2023/02/20 01:48:01;;;;;;;;;;;6.10;99.90;;;;;;5051627;28;19963;-71
2023/02/20 01:50:29;;;;;;;;;;;6.10;99.90;;;;;;5047809;28;19932;-71
2023/02/20 01:52:58;;;;;;;;;;;6.10;99.90;;;;;;5040905;28;19925;-70
2023/02/20 01:55:27;;;;;;;;;;;6.10;99.90;;;;;;5047276;28;19967;-70
2023/02/20 01:57:58;;;;;;;;;;;6.10;99.90;;;;;;5051039;28;19968;-71
2023/02/20 02:00:25;;;;;;;;;;;6.20;99.90;;;;;;5049373;28;20015;-71
2023/02/20 02:02:55;;;;;;;;;;;6.20;99.90;;;;;;5039014;28;19932;-70
2023/02/20 02:05:22;;;;;;;;;;;6.20;99.90;;;;;;5048241;28;20390;-70
2023/02/20 02:07:49;;;;;;;;;;;6.20;99.90;;;;;;5044640;28;19972;-70
2023/02/20 02:10:20;;;;;;;;;;;6.20;99.90;;;;;;5039827;28;19971;-70
2023/02/20 02:12:49;;;;;;;;;;;6.30;99.90;;;;;;5052495;28;19936;-71
2023/02/20 02:15:19;;;;;;;;;;;6.30;99.90;;;;;;5046793;28;19925;-71
2023/02/20 02:17:52;;;;;;;;;;;6.30;99.90;;;;;;5045373;28;19940;-71
2023/02/20 02:20:42;;;;;;;;;;;6.30;99.90;;;;;;5047136;28;19929;-71
2023/02/20 02:23:23;;;;;;;;;;;6.30;99.90;;;;;;5050302;28;19925;-71
2023/02/20 02:25:55;;;;;;;;;;;6.30;99.90;;;;;;5042011;28;19925;-71
2023/02/20 02:28:37;;;;;;;;;;;6.40;99.90;;;;;;5043557;28;19925;-71
2023/02/20 02:31:23;;;;;;;;;;;6.40;99.90;;;;;;5045192;28;19924;-71
2023/02/20 02:34:02;;;;;;;;;;;6.40;99.90;;;;;;5056097;28;19932;-70
2023/02/20 02:36:44;;;;;;;;;;;6.40;99.90;;;;;;5042695;28;20648;-71
2023/02/20 02:39:15;;;;;;;;;;;6.40;99.90;;;;;;5059441;28;20007;-71
2023/02/20 02:41:46;;;;;;;;;;;6.40;99.90;;;;;;5048509;28;19960;-70
2023/02/20 02:44:15;;;;;;;;;;;6.30;99.90;;;;;;5045894;28;19939;-71
2023/02/20 02:46:43;;;;;;;;;;;6.30;99.90;;;;;;5041845;28;19925;-70
2023/02/20 02:49:14;;;;;;;;;;;6.30;99.90;;;;;;5050391;28;19928;-70
2023/02/20 02:51:46;;;;;;;;;;;6.20;99.90;;;;;;5044094;28;19982;-70
2023/02/20 02:54:15;;;;;;;;;;;6.20;99.90;;;;;;5045688;28;19931;-71
2023/02/20 02:56:44;;;;;;;;;;;6.10;99.90;;;;;;5039071;28;20021;-71
2023/02/20 02:59:12;;;;;;;;;;;6.10;99.90;;;;;;5048365;28;19925;-71
2023/02/20 03:01:41;;;;;;;;;;;6.00;99.90;;;;;;5047140;28;19929;-71
2023/02/20 03:04:10;;;;;;;;;;;5.90;99.90;;;;;;5046885;28;19925;-70
2023/02/20 03:06:38;;;;;;;;;;;5.90;99.90;;;;;;5047763;28;19928;-70
2023/02/20 03:09:08;;;;;;;;;;;5.90;99.90;;;;;;5050004;28;19994;-70
2023/02/20 03:11:36;;;;;;;;;;;5.90;99.90;;;;;;5047413;28;20012;-70
2023/02/20 03:16:51;;;;;;;;;;;5.90;99.90;;;;;;5034268;28;20108;-71
2023/02/20 03:19:21;;;;;;;;;;;5.80;99.90;;;;;;5049105;28;19960;-71
2023/02/20 03:21:49;;;;;;;;;;;5.90;99.90;;;;;;5039782;28;20010;-70
2023/02/20 03:24:20;;;;;;;;;;;6.00;99.90;;;;;;5048701;28;20404;-70
2023/02/20 03:26:46;;;;;;;;;;;6.00;99.90;;;;;;5048799;28;19925;-70
2023/02/20 03:29:16;;;;;;;;;;;6.10;99.90;;;;;;5049322;28;20024;-70
2023/02/20 03:31:44;;;;;;;;;;;6.20;99.90;;;;;;5048532;28;19975;-70
2023/02/20 03:45:22;;;;;;;;;;;6.50;99.90;;;;;;5047647;28;19932;-71
2023/02/20 03:47:52;;;;;;;;;;;6.60;99.90;;;;;;5041661;28;20019;-71
2023/02/20 03:50:19;;;;;;;;;;;6.60;99.90;;;;;;5050498;28;19925;-71
2023/02/20 03:52:46;;;;;;;;;;;6.70;99.90;;;;;;5041726;28;19924;-71
2023/02/20 03:55:14;;;;;;;;;;;6.70;99.90;;;;;;5032194;28;20016;-71
2023/02/20 03:57:44;;;;;;;;;;;6.70;99.90;;;;;;5045968;28;19936;-71
2023/02/20 04:00:13;;;;;;;;;;;6.80;99.90;;;;;;5050786;28;19925;-71
2023/02/20 04:02:42;;;;;;;;;;;6.80;99.90;;;;;;5048539;28;19925;-71
2023/02/20 04:05:11;;;;;;;;;;;6.80;99.90;;;;;;5048969;28;19972;-71
2023/02/20 04:07:41;;;;;;;;;;;6.80;99.90;;;;;;5045914;28;19998;-70
2023/02/20 04:10:10;;;;;;;;;;;6.90;99.90;;;;;;5049909;28;20015;-71
2023/02/20 04:12:41;;;;;;;;;;;6.90;99.90;;;;;;5048467;28;20384;-71
2023/02/20 04:15:09;;;;;;;;;;;6.90;99.90;;;;;;5050347;28;20014;-71
2023/02/20 04:17:48;;;;;;;;;;;6.90;99.90;;;;;;5049561;28;19971;-71
2023/02/20 04:20:14;;;;;;;;;;;6.90;99.90;;;;;;5046849;28;19964;-71
2023/02/20 04:22:51;;;;;;;;;;;6.90;99.90;;;;;;5049440;28;19928;-71
2023/02/20 04:25:21;;;;;;;;;;;7.00;99.90;;;;;;5042536;28;19932;-71
2023/02/20 04:27:49;;;;;;;;;;;6.90;99.90;;;;;;5048501;28;19971;-71
2023/02/20 04:30:16;;;;;;;;;;;7.00;99.90;;;;;;5049393;28;20012;-71
2023/02/20 04:32:43;;;;;;;;;;;7.00;99.90;;;;;;5038293;28;20014;-72
2023/02/20 04:35:16;;;;;;;;;;;7.00;99.90;;;;;;5043825;28;19925;-73
2023/02/20 04:37:42;;;;;;;;;;;7.00;99.90;;;;;;5046091;28;20464;-71
2023/02/20 04:40:09;;;;;;;;;;;7.00;99.90;;;;;;5041426;28;19925;-71
2023/02/20 04:42:36;;;;;;;;;;;7.00;99.90;;;;;;5046954;28;19931;-71
2023/02/20 04:45:05;;;;;;;;;;;7.00;99.90;;;;;;5048942;28;19941;-71
2023/02/20 04:47:31;;;;;;;;;;;7.00;99.90;;;;;;5052128;28;19933;-71
2023/02/20 04:49:58;;;;;;;;;;;7.00;99.90;;;;;;5049608;28;19925;-70
2023/02/20 04:52:25;;;;;;;;;;;7.00;99.90;;;;;;5052550;28;20024;-71
2023/02/20 04:54:52;;;;;;;;;;;7.00;99.90;;;;;;5053250;28;20388;-71
2023/02/20 04:57:19;;;;;;;;;;;7.00;99.90;;;;;;5045808;28;20027;-72
2023/02/20 04:59:45;;;;;;;;;;;7.00;99.90;;;;;;5049640;28;20303;-72
2023/02/20 05:02:14;;;;;;;;;;;7.00;99.90;;;;;;5048176;28;19939;-70
2023/02/20 05:04:40;;;;;;;;;;;7.00;99.90;;;;;;5047437;28;19932;-70
2023/02/20 05:07:07;;;;;;;;;;;7.10;99.90;;;;;;5050577;28;20368;-70
2023/02/20 05:09:34;;;;;;;;;;;7.10;99.90;;;;;;5053466;28;19956;-72
2023/02/20 05:12:01;;;;;;;;;;;7.10;99.90;;;;;;5056704;28;19929;-71
2023/02/20 05:14:28;;;;;;;;;;;7.10;99.90;;;;;;5045111;28;19932;-71
2023/02/20 05:16:54;;;;;;;;;;;7.00;99.90;;;;;;5050064;28;20027;-70
2023/02/20 05:19:23;;;;;;;;;;;7.10;99.90;;;;;;5043270;28;20391;-70
2023/02/20 05:24:34;;;;;;;;;;;7.00;99.90;;;;;;5049520;28;19936;-71
2023/02/20 05:27:00;;;;;;;;;;;7.00;99.90;;;;;;5047504;28;20454;-70
2023/02/20 05:29:27;;;;;;;;;;;7.10;99.90;;;;;;5048095;28;19964;-73
2023/02/20 05:31:54;;;;;;;;;;;7.00;99.90;;;;;;5037093;28;20353;-72
2023/02/20 05:34:21;;;;;;;;;;;7.10;99.90;;;;;;5046357;28;20020;-74
2023/02/20 05:36:49;;;;;;;;;;;7.00;99.90;;;;;;5040325;28;20063;-72
2023/02/20 05:39:16;;;;;;;;;;;7.00;99.90;;;;;;5045048;28;19998;-71
2023/02/20 05:41:43;;;;;;;;;;;7.00;99.90;;;;;;5047334;28;20008;-72
2023/02/20 05:44:09;;;;;;;;;;;7.00;99.90;;;;;;5047147;28;19931;-71
2023/02/20 05:46:39;;;;;;;;;;;7.00;99.90;;;;;;5047280;28;19935;-72
2023/02/20 05:49:11;;;;;;;;;;;7.00;99.90;;;;;;5041927;28;19960;-72
2023/02/20 05:51:38;;;;;;;;;;;7.00;99.90;;;;;;5044643;28;19979;-72
2023/02/20 05:54:06;;;;;;;;;;;7.10;99.90;;;;;;5047176;28;20023;-71
2023/02/20 05:56:33;;;;;;;;;;;7.00;99.90;;;;;;5039933;28;20363;-72
2023/02/20 05:59:00;;;;;;;;;;;7.00;99.90;;;;;;5038626;28;19933;-71
2023/02/20 06:01:28;;;;;;;;;;;7.00;99.90;;;;;;5048045;28;19933;-73
2023/02/20 06:03:55;;;;;;;;;;;7.00;99.90;;;;;;5039704;28;20020;-72
2023/02/20 06:06:22;;;;;;;;;;;7.00;99.90;;;;;;5046353;28;20388;-72
2023/02/20 06:08:49;;;;;;;;;;;7.00;99.90;;;;;;5043142;28;19982;-72
2023/02/20 06:11:17;;;;;;;;;;;7.00;99.90;;;;;;5043091;28;19928;-71
2023/02/20 06:13:45;;;;;;;;;;;7.00;99.90;;;;;;5043735;28;19979;-71
2023/02/20 06:16:12;;;;;;;;;;;7.00;99.90;;;;;;5045791;28;20374;-71
2023/02/20 06:18:39;;;;;;;;;;;7.00;99.90;;;;;;5041303;28;20036;-71
2023/02/20 06:21:07;;;;;;;;;;;7.00;99.90;;;;;;5044610;28;19925;-71
2023/02/20 06:23:34;;;;;;;;;;;7.00;99.90;;;;;;5044954;28;20041;-72
2023/02/20 06:26:00;;;;;;;;;;;7.00;99.90;;;;;;5048326;28;19970;-72
2023/02/20 06:28:29;;;;;;;;;;;7.00;99.90;;;;;;5045253;28;19925;-71
2023/02/20 06:30:55;;;;;;;;;;;7.00;99.90;;;;;;5048226;28;19939;-72
2023/02/20 06:33:22;;;;;;;;;;;7.00;99.90;;;;;;5048017;28;19936;-72
2023/02/20 06:35:49;;;;;;;;;;;7.10;99.90;;;;;;5048915;28;19929;-72
2023/02/20 06:38:15;;;;;;;;;;;7.00;99.90;;;;;;5045633;28;19933;-71
2023/02/20 06:40:43;;;;;;;;;;;7.00;99.90;;;;;;5040901;28;19980;-71
2023/02/20 06:43:10;;;;;;;;;;;7.00;99.90;;;;;;5046098;28;20117;-70
2023/02/20 06:45:38;;;;;;;;;;;7.00;99.90;;;;;;5041789;28;20008;-71
2023/02/20 06:48:05;;;;;;;;;;;7.00;99.90;;;;;;5043596;28;19929;-71
2023/02/20 06:50:32;;;;;;;;;;;7.10;99.90;;;;;;5044667;28;19929;-71
2023/02/20 06:52:59;;;;;;;;;;;7.10;99.90;;;;;;5045891;28;19925;-72
2023/02/20 06:55:25;;;;;;;;;;;7.10;99.90;;;;;;5038540;28;20007;-71
2023/02/20 06:57:52;;;;;;;;;;;7.10;99.90;;;;;;5041397;28;19931;-71
2023/02/20 07:00:19;;;;;;;;;;;7.10;99.90;;;;;;5044794;28;19925;-72
2023/02/20 07:02:48;;;;;;;;;;;7.10;99.90;;;;;;5036259;28;19925;-74
2023/02/20 07:05:17;;;;;;;;;;;7.10;99.90;;;;;;5036196;28;19932;-74
2023/02/20 07:07:44;;;;;;;;;;;7.10;99.90;;;;;;5041774;28;19975;-72
2023/02/20 07:10:11;;;;;;;;;;;7.10;99.90;;;;;;5045016;28;19999;-73
2023/02/20 07:12:40;;;;;;;;;;;7.20;99.90;;;;;;5048109;28;20019;-74
2023/02/20 07:15:07;;;;;;;;;;;7.20;99.90;;;;;;5044946;28;19929;-72
2023/02/20 07:17:34;;;;;;;;;;;7.20;99.90;;;;;;5046222;28;20656;-72
2023/02/20 07:20:04;;;;;;;;;;;7.20;99.90;;;;;;5045673;28;20303;-72
2023/02/20 07:22:31;;;;;;;;;;;7.20;99.90;;;;;;5039800;28;20260;-71
2023/02/20 07:24:57;;;;;;;;;;;7.20;99.90;;;;;;5044973;28;19991;-72
2023/02/20 07:27:24;;;;;;;;;;;7.30;99.90;;;;;;5045496;28;19924;-72
2023/02/20 07:29:51;;;;;;;;;;;7.30;99.90;;;;;;5045013;28;19929;-70
2023/02/20 07:32:19;;;;;;;;;;;7.30;99.90;;;;;;5046507;28;19933;-72
2023/02/20 07:34:46;;;;;;;;;;;7.30;99.90;;;;;;5049092;28;19932;-70
2023/02/20 07:37:14;;;;;;;;;;;7.30;99.90;;;;;;5045248;28;20382;-70
2023/02/20 07:39:41;;;;;;;;;;;7.40;99.90;;;;;;5045574;28;19928;-70
2023/02/20 07:42:07;;;;;;;;;;;7.40;99.90;;;;;;5043393;28;20019;-71
2023/02/20 07:44:35;;;;;;;;;;;7.40;99.90;;;;;;5045087;28;20386;-71
2023/02/20 07:47:04;;;;;;;;;;;7.50;99.90;;;;;;5044842;28;19986;-74
2023/02/20 07:49:31;;;;;;;;;;;7.50;99.90;;;;;;5044185;28;19932;-72
2023/02/20 07:51:57;;;;;;;;;;;7.50;99.90;;;;;;5046324;28;20364;-70
2023/02/20 07:54:26;;;;;;;;;;;7.50;99.90;;;;;;5043638;28;19933;-72
2023/02/20 07:56:53;;;;;;;;;;;7.50;99.90;;;;;;5040970;28;19925;-73
2023/02/20 07:59:20;;;;;;;;;;;7.50;99.90;;;;;;5043274;28;19972;-72
2023/02/20 08:01:47;;;;;;;;;;;7.60;99.90;;;;;;5044545;28;20011;-71
2023/02/20 08:04:14;;;;;;;;;;;7.60;99.90;;;;;;5036904;28;19937;-71
2023/02/20 08:06:41;;;;;;;;;;;7.60;99.90;;;;;;5046299;28;19928;-71
2023/02/20 08:09:09;;;;;;;;;;;7.60;99.90;;;;;;5044609;28;19925;-71
2023/02/20 08:11:38;;;;;;;;;;;7.70;99.90;;;;;;5048400;28;19929;-71
2023/02/20 08:14:06;;;;;;;;;;;7.70;99.90;;;;;;5045458;28;20380;-72
2023/02/20 08:16:33;;;;;;;;;;;7.70;99.90;;;;;;5048320;28;19960;-71
2023/02/20 08:19:00;;;;;;;;;;;7.80;99.90;;;;;;5046228;28;19978;-70
2023/02/20 08:21:27;;;;;;;;;;;7.70;99.90;;;;;;5049179;28;20447;-73
2023/02/20 08:23:54;;;;;;;;;;;7.80;99.90;;;;;;5049526;28;20003;-73
2023/02/20 08:26:21;;;;;;;;;;;7.80;99.90;;;;;;5049787;28;20392;-72
2023/02/20 08:28:49;;;;;;;;;;;7.80;99.90;;;;;;5050635;28;19979;-75
2023/02/20 08:31:16;;;;;;;;;;;7.80;99.90;;;;;;5049919;28;19965;-75
2023/02/20 08:33:43;;;;;;;;;;;7.80;99.90;;;;;;5046177;28;19963;-74
2023/02/20 08:36:14;;;;;;;;;;;7.80;99.90;;;;;;5044982;28;20023;-74
2023/02/20 08:38:41;;;;;;;;;;;7.80;99.90;;;;;;5035295;28;19940;-76
2023/02/20 08:41:08;;;;;;;;;;;7.80;99.90;;;;;;5044347;28;20023;-76
2023/02/20 08:43:35;;;;;;;;;;;7.80;99.90;;;;;;5046688;28;20011;-75
2023/02/20 08:46:04;;;;;;;;;;;7.80;99.90;;;;;;5046859;28;20275;-76
2023/02/20 08:48:31;;;;;;;;;;;7.80;99.90;;;;;;5045709;28;19960;-77
2023/02/20 08:50:58;;;;;;;;;;;7.80;99.90;;;;;;5049502;28;20035;-77
2023/02/20 08:53:24;;;;;;;;;;;7.80;99.90;;;;;;5046069;28;19932;-74
2023/02/20 08:55:51;;;;;;;;;;;7.90;99.90;;;;;;5043372;28;20024;-76
2023/02/20 08:58:19;;;;;;;;;;;7.90;99.90;;;;;;5046924;28;19932;-74
2023/02/20 09:00:46;;;;;;;;;;;7.90;99.90;;;;;;5044462;28;19964;-76
2023/02/20 09:03:14;;;;;;;;;;;7.90;99.90;;;;;;5046478;28;19939;-76
2023/02/20 09:05:41;;;;;;;;;;;7.90;99.90;;;;;;5043996;28;19929;-75
2023/02/20 09:08:08;;;;;;;;;;;7.90;99.90;;;;;;5044190;28;19925;-75
2023/02/20 09:10:35;;;;;;;;;;;8.00;99.90;;;;;;5054090;28;20413;-75
2023/02/20 09:13:02;;;;;;;;;;;8.00;99.90;;;;;;5043881;28;20448;-74
2023/02/20 09:15:30;;;;;;;;;;;7.90;99.90;;;;;;5050785;28;20008;-76
2023/02/20 09:17:59;;;;;;;;;;;8.00;99.90;;;;;;5044394;28;19925;-75
2023/02/20 09:20:27;;;;;;;;;;;8.00;99.90;;;;;;5048037;28;20019;-75
2023/02/20 09:22:57;;;;;;;;;;;8.00;99.90;;;;;;5041961;28;19976;-75
2023/02/20 09:25:24;;;;;;;;;;;8.00;99.90;;;;;;5047936;28;20012;-74
2023/02/20 09:27:51;;;;;;;;;;;8.00;99.90;;;;;;5041444;28;19932;-74
2023/02/20 09:30:20;;;;;;;;;;;8.00;99.90;;;;;;5042092;28;20300;-75
2023/02/20 09:32:49;;;;;;;;;;;8.00;99.90;;;;;;5044472;28;20469;-75
2023/02/20 09:35:17;;;;;;;;;;;8.10;99.90;;;;;;5044062;28;19940;-75
2023/02/20 09:37:45;;;;;;;;;;;8.10;99.90;;;;;;5042370;28;19929;-75
2023/02/20 09:40:13;;;;;;;;;;;8.10;99.90;;;;;;5041086;28;20011;-78
2023/02/20 09:42:46;;;;;;;;;;;8.10;99.90;;;;;;5039052;28;19932;-77
2023/02/20 09:45:16;;;;;;;;;;;8.10;99.90;;;;;;5043064;28;19928;-75
2023/02/20 09:47:51;;;;;;;;;;;8.10;99.90;;;;;;5042706;28;19945;-74
2023/02/20 09:50:22;;;;;;;;;;;8.10;99.90;;;;;;5039177;28;20004;-75
2023/02/20 09:52:54;;;;;;;;;;;8.10;99.90;;;;;;5040423;28;20020;-75
2023/02/20 09:55:22;;;;;;;;;;;8.20;99.90;;;;;;5044939;28;19924;-75
2023/02/20 09:57:51;;;;;;;;;;;8.20;99.90;;;;;;5040382;28;20388;-75
2023/02/20 10:00:21;;;;;;;;;;;8.20;99.90;;;;;;5045486;28;20028;-69
2023/02/20 10:02:53;;;;;;;;;;;8.30;99.90;;;;;;5043501;28;19933;-68
2023/02/20 10:05:22;;;;;;;;;;;8.30;99.90;;;;;;5042146;28;20031;-72
2023/02/20 10:07:50;;;;;;;;;;;8.30;99.90;;;;;;5035437;28;20325;-72
2023/02/20 10:10:19;;;;;;;;;;;8.30;99.90;;;;;;5031359;28;19933;-72
2023/02/20 10:12:50;;;;;;;;;;;8.40;99.90;;;;;;5046712;28;19924;-72
2023/02/20 10:15:19;;;;;;;;;;;8.40;99.90;;;;;;5036757;28;19925;-71
2023/02/20 10:17:50;;;;;;;;;;;8.40;99.90;;;;;;5038357;28;19929;-73
2023/02/20 10:20:19;;;;;;;;;;;8.40;99.90;;;;;;5034880;28;19999;-71
2023/02/20 10:22:52;;;;;;;;;;;8.50;99.90;;;;;;5034522;28;20278;-72
2023/02/20 10:25:23;;;;;;;;;;;8.50;99.90;;;;;;5041550;28;20044;-72
2023/02/20 10:27:54;;;;;;;;;;;8.50;99.90;;;;;;5032886;28;19977;-72
2023/02/20 10:30:27;;;;;;;;;;;8.60;99.90;;;;;;5032121;28;19939;-72
2023/02/20 10:32:57;;;;;;;;;;;8.50;99.90;;;;;;5041708;28;19971;-71
2023/02/20 10:35:24;;;;;;;;;;;8.60;99.90;;;;;;5036780;28;20304;-72
2023/02/20 10:37:55;;;;;;;;;;;8.60;99.90;;;;;;5033540;28;20016;-73
2023/02/20 10:40:24;;;;;;;;;;;8.60;99.90;;;;;;5041113;28;19928;-73
2023/02/20 10:42:57;;;;;;;;;;;8.60;99.90;;;;;;5035459;28;20786;-73
2023/02/20 10:45:28;;;;;;;;;;;8.60;99.90;;;;;;5036991;28;19925;-73
2023/02/20 10:47:58;;;;;;;;;;;8.70;99.90;;;;;;5036177;28;19978;-74
2023/02/20 10:50:29;;;;;;;;;;;8.70;99.90;;;;;;5040118;28;19925;-73
2023/02/20 10:52:59;;;;;;;;;;;8.60;99.90;;;;;;5035463;28;20015;-73
2023/02/20 10:55:28;;;;;;;;;;;8.60;99.90;;;;;;5043588;28;19971;-73
2023/02/20 10:57:58;;;;;;;;;;;8.70;99.90;;;;;;5034177;28;20023;-72
2023/02/20 11:00:27;;;;;;;;;;;8.70;99.90;;;;;;5043213;28;19972;-72
2023/02/20 11:02:57;;;;;;;;;;;8.70;99.90;;;;;;5042253;28;20019;-73
2023/02/20 11:05:26;;;;;;;;;;;8.80;99.90;;;;;;5042580;28;19924;-73
2023/02/20 11:07:58;;;;;;;;;;;8.80;99.90;;;;;;5045746;28;20007;-73
2023/02/20 11:10:24;;;;;;;;;;;8.80;99.90;;;;;;5041920;28;20007;-73
2023/02/20 11:12:52;;;;;;;;;;;8.70;99.90;;;;;;5046189;28;20346;-74
2023/02/20 11:15:20;;;;;;;;;;;8.70;99.90;;;;;;5044956;28;19983;-72
2023/02/20 11:17:49;;;;;;;;;;;8.80;99.90;;;;;;5044290;28;19925;-73
2023/02/20 11:20:36;;;;;;;;;;;8.80;99.90;;;;;;5039427;28;20031;-72
2023/02/20 11:23:05;;;;;;;;;;;8.90;99.90;;;;;;5050051;28;20303;-73
2023/02/20 11:25:33;;;;;;;;;;;8.90;99.90;;;;;;5047603;28;20023;-74
2023/02/20 11:28:07;;;;;;;;;;;8.90;99.90;;;;;;5046153;28;19925;-74
2023/02/20 11:30:34;;;;;;;;;;;8.90;99.90;;;;;;5047594;28;20443;-74
2023/02/20 11:33:03;;;;;;;;;;;8.90;99.90;;;;;;5047530;28;20345;-75
2023/02/20 11:35:32;;;;;;;;;;;8.90;99.90;;;;;;5043344;28;19924;-73
2023/02/20 11:38:26;;;;;;;;;;;8.80;99.90;;;;;;5047949;28;19935;-73
2023/02/20 11:41:02;;;;;;;;;;;8.90;99.90;;;;;;5038855;28;20011;-73
2023/02/20 11:43:30;;;;;;;;;;;9.00;99.90;;;;;;5042085;28;19932;-74
2023/02/20 11:46:06;;;;;;;;;;;9.00;99.90;;;;;;5038619;28;19924;-74
2023/02/20 11:48:33;;;;;;;;;;;9.10;99.90;;;;;;5041065;28;19928;-73
2023/02/20 11:51:00;;;;;;;;;;;9.00;99.90;;;;;;5051994;28;19929;-73
2023/02/20 11:53:32;;;;;;;;;;;9.10;99.90;;;;;;5050675;28;19960;-74
2023/02/20 11:56:11;;;;;;;;;;;9.10;99.90;;;;;;5047377;28;19932;-73
2023/02/20 11:58:40;;;;;;;;;;;9.10;99.90;;;;;;5041881;28;20419;-74
2023/02/20 12:01:07;;;;;;;;;;;9.20;99.90;;;;;;5048816;28;19929;-75
2023/02/20 12:03:35;;;;;;;;;;;9.10;99.90;;;;;;5051675;28;20433;-73
2023/02/20 12:06:22;;;;;;;;;;;9.10;99.90;;;;;;5044142;28;19999;-72
2023/02/20 12:08:54;;;;;;;;;;;9.20;99.90;;;;;;5043700;28;19935;-72
2023/02/20 12:11:22;;;;;;;;;;;9.10;99.90;;;;;;5050576;28;19948;-73
2023/02/20 12:13:50;;;;;;;;;;;9.10;99.90;;;;;;5051274;28;19987;-73
2023/02/20 12:16:26;;;;;;;;;;;9.20;99.90;;;;;;5045349;28;19932;-73
2023/02/20 12:18:56;;;;;;;;;;;9.20;99.90;;;;;;5048789;28;20020;-73
2023/02/20 12:21:26;;;;;;;;;;;9.20;99.90;;;;;;5037983;28;19979;-74
2023/02/20 12:24:10;;;;;;;;;;;9.20;99.90;;;;;;5046790;28;19969;-72
2023/02/20 12:26:43;;;;;;;;;;;9.20;99.90;;;;;;5050573;28;20026;-73
2023/02/20 12:29:26;;;;;;;;;;;9.20;99.90;;;;;;5047115;28;20343;-73
2023/02/20 12:31:59;;;;;;;;;;;9.30;99.90;;;;;;5049105;28;19926;-74
2023/02/20 12:34:34;;;;;;;;;;;9.30;99.90;;;;;;5045364;28;19925;-73
2023/02/20 12:37:06;;;;;;;;;;;9.30;99.90;;;;;;5050140;28;20039;-74
2023/02/20 12:39:37;;;;;;;;;;;9.30;99.90;;;;;;5045102;28;19964;-72
2023/02/20 12:42:09;;;;;;;;;;;9.20;99.90;;;;;;5050588;28;19924;-73
2023/02/20 12:44:47;;;;;;;;;;;9.30;99.90;;;;;;5042994;28;20382;-73
2023/02/20 12:47:19;;;;;;;;;;;9.30;99.90;;;;;;5049842;28;19925;-73
2023/02/20 12:49:55;;;;;;;;;;;9.40;99.90;;;;;;5043916;28;19925;-73
2023/02/20 12:52:55;;;;;;;;;;;9.40;99.90;;;;;;5053124;28;19932;-73
2023/02/20 12:55:27;;;;;;;;;;;9.40;99.90;;;;;;5003013;28;20092;-73
2023/02/20 12:58:03;;;;;;;;;;;9.40;99.90;;;;;;4998912;28;20479;-73
2023/02/20 13:00:32;;;;;;;;;;;9.40;99.90;;;;;;5019486;28;19941;-74
2023/02/20 13:03:01;;;;;;;;;;;9.40;99.90;;;;;;5048041;28;19933;-74
2023/02/20 13:05:28;;;;;;;;;;;9.50;99.90;;;;;;5041429;28;19925;-73
2023/02/20 13:07:56;;;;;;;;;;;9.50;99.90;;;;;;5048020;28;19925;-73
2023/02/20 13:10:26;;;;;;;;;;;9.50;99.90;;;;;;5050764;28;20303;-72
2023/02/20 13:12:54;;;;;;;;;;;9.50;99.90;;;;;;5046392;28;19932;-72
2023/02/20 13:15:27;;;;;;;;;;;9.40;99.90;;;;;;5046214;28;20447;-73
2023/02/20 13:17:58;;;;;;;;;;;9.50;99.90;;;;;;5053432;28;19924;-72
2023/02/20 13:20:26;;;;;;;;;;;9.40;99.90;;;;;;5037769;28;20023;-74
2023/02/20 13:23:01;;;;;;;;;;;9.50;99.90;;;;;;5045881;28;20118;-73
2023/02/20 13:25:38;;;;;;;;;;;9.50;99.90;;;;;;5040585;28;19925;-74
2023/02/20 13:28:14;;;;;;;;;;;9.40;99.90;;;;;;5046749;28;19925;-74
2023/02/20 13:30:40;;;;;;;;;;;9.40;99.90;;;;;;5049295;28;19932;-73
2023/02/20 13:33:17;;;;;;;;;;;9.50;99.90;;;;;;5052830;28;19968;-75
2023/02/20 13:35:50;;;;;;;;;;;9.50;99.90;;;;;;5043422;28;20015;-74
2023/02/20 13:38:18;;;;;;;;;;;9.50;99.90;;;;;;5041192;28;20020;-74
2023/02/20 13:40:59;;;;;;;;;;;9.50;99.90;;;;;;5049157;28;19929;-73
2023/02/20 13:43:30;;;;;;;;;;;9.50;99.90;;;;;;5045425;28;19987;-73
2023/02/20 13:46:16;;;;;;;;;;;9.50;99.90;;;;;;5050874;28;19929;-74
2023/02/20 13:48:43;;;;;;;;;;;9.50;99.90;;;;;;5048935;28;19929;-73
2023/02/20 13:51:30;;;;;;;;;;;9.50;99.90;;;;;;5048442;28;20410;-73
2023/02/20 13:53:57;;;;;;;;;;;9.50;99.90;;;;;;5045812;28;19933;-72
2023/02/20 13:56:27;;;;;;;;;;;9.50;99.90;;;;;;5053112;28;19925;-74
2023/02/20 13:58:54;;;;;;;;;;;9.60;99.90;;;;;;5043236;28;19963;-73
2023/02/20 14:01:21;;;;;;;;;;;9.50;99.90;;;;;;5051434;28;20433;-74
2023/02/20 14:04:00;;;;;;;;;;;9.60;99.90;;;;;;5043870;28;19928;-73
2023/02/20 14:06:28;;;;;;;;;;;9.50;99.90;;;;;;5049729;28;19925;-74
2023/02/20 14:09:08;;;;;;;;;;;9.50;99.90;;;;;;5046751;28;19931;-73
2023/02/20 14:11:38;;;;;;;;;;;9.60;99.90;;;;;;5048287;28;20423;-73
2023/02/20 14:14:08;;;;;;;;;;;9.70;99.90;;;;;;5047487;28;19925;-72
2023/02/20 14:16:38;;;;;;;;;;;9.70;99.90;;;;;;5033583;28;19926;-74
2023/02/20 14:19:09;;;;;;;;;;;9.70;99.90;;;;;;5035450;28;20589;-75
2023/02/20 14:21:37;;;;;;;;;;;9.70;99.90;;;;;;5042873;28;19931;-75
2023/02/20 14:24:11;;;;;;;;;;;9.80;99.90;;;;;;5045115;28;19979;-74
2023/02/20 14:26:39;;;;;;;;;;;9.80;99.90;;;;;;5046213;28;20387;-74
2023/02/20 14:29:18;;;;;;;;;;;9.80;99.90;;;;;;5036612;28;20423;-75
2023/02/20 14:31:48;;;;;;;;;;;9.80;99.90;;;;;;5041811;28;20325;-74
2023/02/20 14:34:18;;;;;;;;;;;9.80;99.90;;;;;;5044458;28;19925;-74
2023/02/20 14:36:50;;;;;;;;;;;9.70;99.90;;;;;;5041665;28;20010;-76
2023/02/20 14:39:29;;;;;;;;;;;9.70;99.90;;;;;;5047059;28;20024;-74
2023/02/20 14:41:58;;;;;;;;;;;9.80;99.90;;;;;;5042993;28;19979;-73
2023/02/20 14:44:26;;;;;;;;;;;9.80;99.90;;;;;;5048466;28;19929;-73
2023/02/20 14:46:53;;;;;;;;;;;9.80;99.90;;;;;;5047962;28;19925;-76
2023/02/20 14:49:24;;;;;;;;;;;9.80;99.90;;;;;;5051105;28;19924;-75
2023/02/20 14:51:51;;;;;;;;;;;9.80;99.90;;;;;;5048893;28;19925;-74
2023/02/20 14:54:19;;;;;;;;;;;9.80;99.90;;;;;;5048579;28;20367;-75
2023/02/20 14:56:46;;;;;;;;;;;9.80;99.90;;;;;;5040774;28;20007;-75
2023/02/20 14:59:22;;;;;;;;;;;9.80;99.90;;;;;;5041393;28;19932;-75